sensor_id;sensor_type;location;lat;lon;timestamp;P1;durP1;ratioP1;P2;durP2;ratioP2
23302;SDS011;11820;48.738;9.092;2022-09-17T00:00:57;1.10;;;0.80;;
23302;SDS011;11820;48.738;9.092;2022-09-17T00:03:23;2.17;;;0.67;;
23302;SDS011;11820;48.738;9.092;2022-09-17T00:05:49;1.60;;;0.80;;
23302;SDS011;11820;48.738;9.092;2022-09-17T00:08:22;1.20;;;0.80;;
23302;SDS011;11820;48.738;9.092;2022-09-17T00:10:47;1.70;;;0.80;;
23302;SDS011;11820;48.738;9.092;2022-09-17T00:13:13;1.37;;;0.80;;
23302;SDS011;11820;48.738;9.092;2022-09-17T00:15:42;0.87;;;0.70;;
23302;SDS011;11820;48.738;9.092;2022-09-17T00:18:10;3.80;;;0.90;;
23302;SDS011;11820;48.738;9.092;2022-09-17T00:20:39;0.83;;;0.70;;
23302;SDS011;11820;48.738;9.092;2022-09-17T00:23:06;2.33;;;0.73;;
23302;SDS011;11820;48.738;9.092;2022-09-17T00:25:33;0.93;;;0.50;;
23302;SDS011;11820;48.738;9.092;2022-09-17T00:28:01;1.10;;;0.60;;
23302;SDS011;11820;48.738;9.092;2022-09-17T00:30:27;1.23;;;0.77;;
23302;SDS011;11820;48.738;9.092;2022-09-17T00:32:52;1.60;;;0.73;;
23302;SDS011;11820;48.738;9.092;2022-09-17T00:35:17;2.17;;;0.80;;
23302;SDS011;11820;48.738;9.092;2022-09-17T00:37:43;0.90;;;0.70;;
23302;SDS011;11820;48.738;9.092;2022-09-17T00:40:08;2.17;;;0.70;;
23302;SDS011;11820;48.738;9.092;2022-09-17T00:42:34;0.93;;;0.67;;
23302;SDS011;11820;48.738;9.092;2022-09-17T00:45:00;0.77;;;0.70;;
23302;SDS011;11820;48.738;9.092;2022-09-17T00:47:29;0.90;;;0.70;;
23302;SDS011;11820;48.738;9.092;2022-09-17T00:49:56;1.73;;;0.87;;
23302;SDS011;11820;48.738;9.092;2022-09-17T00:52:27;1.37;;;0.80;;
23302;SDS011;11820;48.738;9.092;2022-09-17T00:55:02;2.83;;;1.10;;
23302;SDS011;11820;48.738;9.092;2022-09-17T00:57:37;1.47;;;0.77;;
23302;SDS011;11820;48.738;9.092;2022-09-17T01:00:05;3.27;;;0.90;;
23302;SDS011;11820;48.738;9.092;2022-09-17T01:02:32;1.77;;;1.13;;
23302;SDS011;11820;48.738;9.092;2022-09-17T01:04:58;1.63;;;0.83;;
23302;SDS011;11820;48.738;9.092;2022-09-17T01:07:30;3.70;;;0.83;;
23302;SDS011;11820;48.738;9.092;2022-09-17T01:13:25;2.50;;;1.00;;
23302;SDS011;11820;48.738;9.092;2022-09-17T01:16:20;1.77;;;0.80;;
23302;SDS011;11820;48.738;9.092;2022-09-17T01:19:03;2.70;;;0.93;;
23302;SDS011;11820;48.738;9.092;2022-09-17T01:21:45;1.00;;;0.90;;
23302;SDS011;11820;48.738;9.092;2022-09-17T01:30:02;3.90;;;1.10;;
23302;SDS011;11820;48.738;9.092;2022-09-17T01:32:36;2.53;;;0.93;;
23302;SDS011;11820;48.738;9.092;2022-09-17T01:38:12;3.20;;;1.23;;
23302;SDS011;11820;48.738;9.092;2022-09-17T01:40:49;2.73;;;1.10;;
23302;SDS011;11820;48.738;9.092;2022-09-17T01:43:22;4.70;;;1.23;;
23302;SDS011;11820;48.738;9.092;2022-09-17T01:48:30;2.30;;;1.03;;
23302;SDS011;11820;48.738;9.092;2022-09-17T01:51:06;3.00;;;1.07;;
23302;SDS011;11820;48.738;9.092;2022-09-17T01:56:36;3.63;;;1.10;;
23302;SDS011;11820;48.738;9.092;2022-09-17T01:59:16;3.47;;;1.27;;
23302;SDS011;11820;48.738;9.092;2022-09-17T02:01:46;2.30;;;0.93;;
23302;SDS011;11820;48.738;9.092;2022-09-17T02:04:28;1.47;;;1.17;;
23302;SDS011;11820;48.738;9.092;2022-09-17T02:06:59;1.73;;;1.00;;
23302;SDS011;11820;48.738;9.092;2022-09-17T02:09:37;1.90;;;1.00;;
23302;SDS011;11820;48.738;9.092;2022-09-17T02:12:16;1.13;;;0.83;;
23302;SDS011;11820;48.738;9.092;2022-09-17T02:14:48;2.33;;;0.97;;
23302;SDS011;11820;48.738;9.092;2022-09-17T02:17:25;2.77;;;1.30;;
23302;SDS011;11820;48.738;9.092;2022-09-17T02:19:56;2.50;;;1.00;;
23302;SDS011;11820;48.738;9.092;2022-09-17T02:22:24;1.07;;;0.93;;
23302;SDS011;11820;48.738;9.092;2022-09-17T02:30:10;4.80;;;1.40;;
23302;SDS011;11820;48.738;9.092;2022-09-17T02:32:36;1.93;;;1.30;;
23302;SDS011;11820;48.738;9.092;2022-09-17T02:35:02;1.53;;;0.77;;
23302;SDS011;11820;48.738;9.092;2022-09-17T02:37:28;2.67;;;1.07;;
23302;SDS011;11820;48.738;9.092;2022-09-17T02:39:53;5.67;;;1.37;;
23302;SDS011;11820;48.738;9.092;2022-09-17T02:47:52;2.43;;;1.10;;
23302;SDS011;11820;48.738;9.092;2022-09-17T02:50:37;2.77;;;0.90;;
23302;SDS011;11820;48.738;9.092;2022-09-17T02:58:32;2.93;;;0.97;;
23302;SDS011;11820;48.738;9.092;2022-09-17T03:01:10;3.50;;;1.37;;
23302;SDS011;11820;48.738;9.092;2022-09-17T03:03:43;4.17;;;1.87;;
23302;SDS011;11820;48.738;9.092;2022-09-17T03:06:11;3.27;;;1.30;;
23302;SDS011;11820;48.738;9.092;2022-09-17T03:08:40;3.03;;;1.20;;
23302;SDS011;11820;48.738;9.092;2022-09-17T03:11:07;8.40;;;1.77;;
23302;SDS011;11820;48.738;9.092;2022-09-17T03:13:34;3.20;;;1.00;;
23302;SDS011;11820;48.738;9.092;2022-09-17T03:16:01;6.77;;;1.33;;
23302;SDS011;11820;48.738;9.092;2022-09-17T03:18:27;2.33;;;1.07;;
23302;SDS011;11820;48.738;9.092;2022-09-17T03:20:52;3.53;;;1.10;;
23302;SDS011;11820;48.738;9.092;2022-09-17T03:23:17;2.57;;;1.00;;
23302;SDS011;11820;48.738;9.092;2022-09-17T03:25:44;3.23;;;1.00;;
23302;SDS011;11820;48.738;9.092;2022-09-17T03:28:10;9.07;;;1.20;;
23302;SDS011;11820;48.738;9.092;2022-09-17T03:30:35;4.87;;;1.83;;
23302;SDS011;11820;48.738;9.092;2022-09-17T03:33:01;8.23;;;1.30;;
23302;SDS011;11820;48.738;9.092;2022-09-17T03:35:26;4.43;;;1.10;;
23302;SDS011;11820;48.738;9.092;2022-09-17T03:37:51;4.37;;;1.43;;
23302;SDS011;11820;48.738;9.092;2022-09-17T03:40:17;3.63;;;1.20;;
23302;SDS011;11820;48.738;9.092;2022-09-17T03:42:42;6.40;;;1.20;;
23302;SDS011;11820;48.738;9.092;2022-09-17T03:45:08;4.87;;;1.10;;
23302;SDS011;11820;48.738;9.092;2022-09-17T03:47:33;7.47;;;1.93;;
23302;SDS011;11820;48.738;9.092;2022-09-17T03:49:59;5.27;;;1.03;;
23302;SDS011;11820;48.738;9.092;2022-09-17T03:52:24;1.77;;;1.00;;
23302;SDS011;11820;48.738;9.092;2022-09-17T03:54:49;4.20;;;1.13;;
23302;SDS011;11820;48.738;9.092;2022-09-17T03:57:15;5.37;;;1.00;;
23302;SDS011;11820;48.738;9.092;2022-09-17T03:59:40;3.87;;;1.20;;
23302;SDS011;11820;48.738;9.092;2022-09-17T04:02:06;3.13;;;1.37;;
23302;SDS011;11820;48.738;9.092;2022-09-17T04:04:31;3.70;;;1.50;;
23302;SDS011;11820;48.738;9.092;2022-09-17T04:06:57;2.17;;;1.10;;
23302;SDS011;11820;48.738;9.092;2022-09-17T04:09:22;4.17;;;1.20;;
23302;SDS011;11820;48.738;9.092;2022-09-17T04:11:47;3.77;;;1.20;;
23302;SDS011;11820;48.738;9.092;2022-09-17T04:14:13;2.43;;;0.93;;
23302;SDS011;11820;48.738;9.092;2022-09-17T04:16:38;4.50;;;1.27;;
23302;SDS011;11820;48.738;9.092;2022-09-17T04:19:03;3.63;;;1.33;;
23302;SDS011;11820;48.738;9.092;2022-09-17T04:21:29;4.27;;;1.03;;
23302;SDS011;11820;48.738;9.092;2022-09-17T04:23:54;3.60;;;1.20;;
23302;SDS011;11820;48.738;9.092;2022-09-17T04:26:20;5.73;;;1.27;;
23302;SDS011;11820;48.738;9.092;2022-09-17T04:28:45;3.97;;;0.90;;
23302;SDS011;11820;48.738;9.092;2022-09-17T04:31:11;6.00;;;1.67;;
23302;SDS011;11820;48.738;9.092;2022-09-17T04:33:36;3.50;;;1.03;;
23302;SDS011;11820;48.738;9.092;2022-09-17T04:36:02;3.20;;;1.03;;
23302;SDS011;11820;48.738;9.092;2022-09-17T04:38:27;4.50;;;1.27;;
23302;SDS011;11820;48.738;9.092;2022-09-17T04:40:53;5.50;;;1.00;;
23302;SDS011;11820;48.738;9.092;2022-09-17T04:43:21;7.53;;;1.43;;
23302;SDS011;11820;48.738;9.092;2022-09-17T04:45:47;2.23;;;1.40;;
23302;SDS011;11820;48.738;9.092;2022-09-17T04:48:13;7.73;;;1.13;;
23302;SDS011;11820;48.738;9.092;2022-09-17T04:50:38;3.87;;;1.30;;
23302;SDS011;11820;48.738;9.092;2022-09-17T04:53:03;5.90;;;1.37;;
23302;SDS011;11820;48.738;9.092;2022-09-17T04:55:29;3.73;;;1.30;;
23302;SDS011;11820;48.738;9.092;2022-09-17T04:57:55;6.13;;;1.40;;
23302;SDS011;11820;48.738;9.092;2022-09-17T05:00:21;2.70;;;0.90;;
23302;SDS011;11820;48.738;9.092;2022-09-17T05:02:48;3.43;;;1.00;;
23302;SDS011;11820;48.738;9.092;2022-09-17T05:05:16;6.33;;;1.10;;
23302;SDS011;11820;48.738;9.092;2022-09-17T05:07:42;5.23;;;1.30;;
23302;SDS011;11820;48.738;9.092;2022-09-17T05:10:08;7.70;;;1.77;;
23302;SDS011;11820;48.738;9.092;2022-09-17T05:12:35;6.40;;;2.30;;
23302;SDS011;11820;48.738;9.092;2022-09-17T05:15:01;5.57;;;1.30;;
23302;SDS011;11820;48.738;9.092;2022-09-17T05:17:26;4.43;;;1.20;;
23302;SDS011;11820;48.738;9.092;2022-09-17T05:19:52;8.10;;;2.07;;
23302;SDS011;11820;48.738;9.092;2022-09-17T05:22:17;2.07;;;1.10;;
23302;SDS011;11820;48.738;9.092;2022-09-17T05:24:44;4.70;;;1.47;;
23302;SDS011;11820;48.738;9.092;2022-09-17T05:27:09;5.50;;;1.57;;
23302;SDS011;11820;48.738;9.092;2022-09-17T05:29:35;7.40;;;1.43;;
23302;SDS011;11820;48.738;9.092;2022-09-17T05:32:01;5.30;;;1.00;;
23302;SDS011;11820;48.738;9.092;2022-09-17T05:34:27;3.23;;;1.17;;
23302;SDS011;11820;48.738;9.092;2022-09-17T05:36:52;3.60;;;1.10;;
23302;SDS011;11820;48.738;9.092;2022-09-17T05:39:17;3.73;;;1.53;;
23302;SDS011;11820;48.738;9.092;2022-09-17T05:41:45;8.00;;;2.00;;
23302;SDS011;11820;48.738;9.092;2022-09-17T05:44:10;6.47;;;1.10;;
23302;SDS011;11820;48.738;9.092;2022-09-17T05:46:35;6.57;;;1.40;;
23302;SDS011;11820;48.738;9.092;2022-09-17T05:49:01;7.23;;;1.50;;
23302;SDS011;11820;48.738;9.092;2022-09-17T05:51:27;6.37;;;1.63;;
23302;SDS011;11820;48.738;9.092;2022-09-17T05:53:53;4.77;;;1.77;;
23302;SDS011;11820;48.738;9.092;2022-09-17T05:56:19;6.10;;;1.50;;
23302;SDS011;11820;48.738;9.092;2022-09-17T05:58:45;4.53;;;1.37;;
23302;SDS011;11820;48.738;9.092;2022-09-17T06:01:11;4.63;;;1.27;;
23302;SDS011;11820;48.738;9.092;2022-09-17T06:03:40;3.80;;;1.30;;
23302;SDS011;11820;48.738;9.092;2022-09-17T06:06:08;5.60;;;1.20;;
23302;SDS011;11820;48.738;9.092;2022-09-17T06:08:34;3.60;;;2.10;;
23302;SDS011;11820;48.738;9.092;2022-09-17T06:11:07;5.70;;;1.40;;
23302;SDS011;11820;48.738;9.092;2022-09-17T06:13:33;5.70;;;1.47;;
23302;SDS011;11820;48.738;9.092;2022-09-17T06:15:59;6.50;;;1.73;;
23302;SDS011;11820;48.738;9.092;2022-09-17T06:18:26;4.03;;;1.40;;
23302;SDS011;11820;48.738;9.092;2022-09-17T06:20:53;9.90;;;1.70;;
23302;SDS011;11820;48.738;9.092;2022-09-17T06:23:20;7.53;;;1.73;;
23302;SDS011;11820;48.738;9.092;2022-09-17T06:25:49;5.17;;;1.50;;
23302;SDS011;11820;48.738;9.092;2022-09-17T06:28:16;4.80;;;1.50;;
23302;SDS011;11820;48.738;9.092;2022-09-17T06:30:42;3.87;;;1.53;;
23302;SDS011;11820;48.738;9.092;2022-09-17T06:33:07;3.43;;;1.30;;
23302;SDS011;11820;48.738;9.092;2022-09-17T06:35:32;3.83;;;1.40;;
23302;SDS011;11820;48.738;9.092;2022-09-17T06:37:58;3.60;;;1.53;;
23302;SDS011;11820;48.738;9.092;2022-09-17T06:40:23;7.73;;;1.50;;
23302;SDS011;11820;48.738;9.092;2022-09-17T06:42:48;5.90;;;1.60;;
23302;SDS011;11820;48.738;9.092;2022-09-17T06:45:14;5.93;;;1.53;;
23302;SDS011;11820;48.738;9.092;2022-09-17T06:47:39;5.17;;;1.97;;
23302;SDS011;11820;48.738;9.092;2022-09-17T06:50:04;4.60;;;1.60;;
23302;SDS011;11820;48.738;9.092;2022-09-17T06:52:30;4.57;;;1.43;;
23302;SDS011;11820;48.738;9.092;2022-09-17T06:54:55;6.77;;;1.70;;
23302;SDS011;11820;48.738;9.092;2022-09-17T06:57:21;4.27;;;1.70;;
23302;SDS011;11820;48.738;9.092;2022-09-17T06:59:46;5.67;;;1.80;;
23302;SDS011;11820;48.738;9.092;2022-09-17T07:02:17;6.93;;;1.73;;
23302;SDS011;11820;48.738;9.092;2022-09-17T07:04:48;7.03;;;1.90;;
23302;SDS011;11820;48.738;9.092;2022-09-17T07:07:13;4.00;;;1.30;;
23302;SDS011;11820;48.738;9.092;2022-09-17T07:09:38;6.23;;;1.60;;
23302;SDS011;11820;48.738;9.092;2022-09-17T07:12:07;3.73;;;1.50;;
23302;SDS011;11820;48.738;9.092;2022-09-17T07:14:33;3.77;;;1.23;;
23302;SDS011;11820;48.738;9.092;2022-09-17T07:16:58;4.93;;;1.43;;
23302;SDS011;11820;48.738;9.092;2022-09-17T07:19:23;6.07;;;1.50;;
23302;SDS011;11820;48.738;9.092;2022-09-17T07:21:49;4.17;;;1.47;;
23302;SDS011;11820;48.738;9.092;2022-09-17T07:24:14;6.30;;;2.17;;
23302;SDS011;11820;48.738;9.092;2022-09-17T07:26:39;4.37;;;1.50;;
23302;SDS011;11820;48.738;9.092;2022-09-17T07:29:05;2.87;;;1.37;;
23302;SDS011;11820;48.738;9.092;2022-09-17T07:31:30;4.50;;;2.07;;
23302;SDS011;11820;48.738;9.092;2022-09-17T07:33:55;3.23;;;1.67;;
23302;SDS011;11820;48.738;9.092;2022-09-17T07:36:21;3.70;;;1.37;;
23302;SDS011;11820;48.738;9.092;2022-09-17T07:38:46;5.13;;;1.80;;
23302;SDS011;11820;48.738;9.092;2022-09-17T07:41:12;6.63;;;1.50;;
23302;SDS011;11820;48.738;9.092;2022-09-17T07:43:39;4.50;;;1.60;;
23302;SDS011;11820;48.738;9.092;2022-09-17T07:46:05;2.87;;;1.17;;
23302;SDS011;11820;48.738;9.092;2022-09-17T07:48:32;3.20;;;1.50;;
23302;SDS011;11820;48.738;9.092;2022-09-17T07:50:58;3.67;;;1.40;;
23302;SDS011;11820;48.738;9.092;2022-09-17T07:53:23;1.97;;;1.23;;
23302;SDS011;11820;48.738;9.092;2022-09-17T07:55:56;15.07;;;1.90;;
23302;SDS011;11820;48.738;9.092;2022-09-17T07:58:27;2.37;;;1.30;;
23302;SDS011;11820;48.738;9.092;2022-09-17T08:00:58;4.63;;;1.43;;
23302;SDS011;11820;48.738;9.092;2022-09-17T08:03:25;2.20;;;1.30;;
23302;SDS011;11820;48.738;9.092;2022-09-17T08:05:50;3.63;;;1.37;;
23302;SDS011;11820;48.738;9.092;2022-09-17T08:08:15;3.43;;;1.50;;
23302;SDS011;11820;48.738;9.092;2022-09-17T08:10:41;4.40;;;2.20;;
23302;SDS011;11820;48.738;9.092;2022-09-17T08:13:07;2.53;;;1.40;;
23302;SDS011;11820;48.738;9.092;2022-09-17T08:15:32;3.70;;;1.50;;
23302;SDS011;11820;48.738;9.092;2022-09-17T08:17:57;2.33;;;1.30;;
23302;SDS011;11820;48.738;9.092;2022-09-17T08:20:23;4.27;;;1.60;;
23302;SDS011;11820;48.738;9.092;2022-09-17T08:22:56;5.93;;;1.50;;
23302;SDS011;11820;48.738;9.092;2022-09-17T08:25:22;3.40;;;1.47;;
23302;SDS011;11820;48.738;9.092;2022-09-17T08:27:51;3.57;;;1.60;;
23302;SDS011;11820;48.738;9.092;2022-09-17T08:30:17;6.10;;;1.80;;
23302;SDS011;11820;48.738;9.092;2022-09-17T08:32:42;4.47;;;2.03;;
23302;SDS011;11820;48.738;9.092;2022-09-17T08:35:08;5.60;;;2.03;;
23302;SDS011;11820;48.738;9.092;2022-09-17T08:37:33;4.70;;;1.77;;
23302;SDS011;11820;48.738;9.092;2022-09-17T08:39:59;3.23;;;1.60;;
23302;SDS011;11820;48.738;9.092;2022-09-17T08:42:36;4.50;;;1.70;;
23302;SDS011;11820;48.738;9.092;2022-09-17T08:45:10;6.90;;;1.93;;
23302;SDS011;11820;48.738;9.092;2022-09-17T08:47:43;7.33;;;1.90;;
23302;SDS011;11820;48.738;9.092;2022-09-17T08:50:32;6.37;;;1.97;;
23302;SDS011;11820;48.738;9.092;2022-09-17T08:56:00;7.77;;;2.00;;
23302;SDS011;11820;48.738;9.092;2022-09-17T08:58:50;7.73;;;2.10;;
23302;SDS011;11820;48.738;9.092;2022-09-17T09:01:39;7.73;;;2.10;;
23302;SDS011;11820;48.738;9.092;2022-09-17T09:07:35;11.23;;;2.97;;
23302;SDS011;11820;48.738;9.092;2022-09-17T09:10:25;6.70;;;2.23;;
23302;SDS011;11820;48.738;9.092;2022-09-17T09:12:55;6.43;;;2.33;;
23302;SDS011;11820;48.738;9.092;2022-09-17T09:18:20;7.27;;;2.63;;
23302;SDS011;11820;48.738;9.092;2022-09-17T09:23:18;7.77;;;1.60;;
23302;SDS011;11820;48.738;9.092;2022-09-17T09:25:52;6.37;;;2.10;;
23302;SDS011;11820;48.738;9.092;2022-09-17T09:28:29;8.00;;;2.27;;
23302;SDS011;11820;48.738;9.092;2022-09-17T09:31:22;5.77;;;1.83;;
23302;SDS011;11820;48.738;9.092;2022-09-17T09:33:50;9.50;;;2.10;;
23302;SDS011;11820;48.738;9.092;2022-09-17T09:36:16;10.97;;;2.17;;
23302;SDS011;11820;48.738;9.092;2022-09-17T09:41:19;5.77;;;2.10;;
23302;SDS011;11820;48.738;9.092;2022-09-17T09:44:02;8.23;;;2.00;;
23302;SDS011;11820;48.738;9.092;2022-09-17T09:46:35;6.30;;;1.70;;
23302;SDS011;11820;48.738;9.092;2022-09-17T09:55:06;5.63;;;2.10;;
23302;SDS011;11820;48.738;9.092;2022-09-17T09:57:56;6.03;;;2.33;;
23302;SDS011;11820;48.738;9.092;2022-09-17T10:00:37;8.10;;;1.83;;
23302;SDS011;11820;48.738;9.092;2022-09-17T10:05:35;5.73;;;2.10;;
23302;SDS011;11820;48.738;9.092;2022-09-17T10:08:09;5.63;;;1.83;;
23302;SDS011;11820;48.738;9.092;2022-09-17T10:10:36;4.47;;;1.67;;
23302;SDS011;11820;48.738;9.092;2022-09-17T10:13:23;7.10;;;1.83;;
23302;SDS011;11820;48.738;9.092;2022-09-17T10:15:49;9.40;;;2.03;;
23302;SDS011;11820;48.738;9.092;2022-09-17T10:20:48;5.57;;;1.60;;
23302;SDS011;11820;48.738;9.092;2022-09-17T10:23:22;4.43;;;1.40;;
23302;SDS011;11820;48.738;9.092;2022-09-17T10:25:49;6.60;;;1.60;;
23302;SDS011;11820;48.738;9.092;2022-09-17T10:28:27;9.80;;;2.27;;
23302;SDS011;11820;48.738;9.092;2022-09-17T10:30:57;9.90;;;2.53;;
23302;SDS011;11820;48.738;9.092;2022-09-17T10:33:26;7.60;;;1.77;;
23302;SDS011;11820;48.738;9.092;2022-09-17T10:35:54;2.50;;;1.00;;
23302;SDS011;11820;48.738;9.092;2022-09-17T10:38:43;5.90;;;2.10;;
23302;SDS011;11820;48.738;9.092;2022-09-17T10:41:20;6.10;;;1.63;;
23302;SDS011;11820;48.738;9.092;2022-09-17T10:43:47;3.70;;;1.40;;
23302;SDS011;11820;48.738;9.092;2022-09-17T10:46:22;3.60;;;1.20;;
23302;SDS011;11820;48.738;9.092;2022-09-17T10:51:32;3.83;;;1.23;;
23302;SDS011;11820;48.738;9.092;2022-09-17T10:54:00;4.33;;;1.43;;
23302;SDS011;11820;48.738;9.092;2022-09-17T10:56:33;4.17;;;1.43;;
23302;SDS011;11820;48.738;9.092;2022-09-17T11:04:42;3.83;;;1.27;;
23302;SDS011;11820;48.738;9.092;2022-09-17T11:07:19;4.00;;;1.30;;
23302;SDS011;11820;48.738;9.092;2022-09-17T11:18:05;2.00;;;1.00;;
23302;SDS011;11820;48.738;9.092;2022-09-17T11:20:49;6.63;;;1.33;;
23302;SDS011;11820;48.738;9.092;2022-09-17T11:26:29;4.63;;;2.20;;
23302;SDS011;11820;48.738;9.092;2022-09-17T11:29:18;3.00;;;1.20;;
23302;SDS011;11820;48.738;9.092;2022-09-17T11:37:37;3.17;;;1.00;;
23302;SDS011;11820;48.738;9.092;2022-09-17T11:40:11;3.33;;;1.13;;
23302;SDS011;11820;48.738;9.092;2022-09-17T11:42:46;4.37;;;1.73;;
23302;SDS011;11820;48.738;9.092;2022-09-17T11:48:19;4.03;;;1.00;;
23302;SDS011;11820;48.738;9.092;2022-09-17T11:50:54;6.67;;;0.93;;
23302;SDS011;11820;48.738;9.092;2022-09-17T11:53:31;4.47;;;1.30;;
23302;SDS011;11820;48.738;9.092;2022-09-17T11:55:59;3.03;;;0.90;;
23302;SDS011;11820;48.738;9.092;2022-09-17T11:58:31;3.30;;;1.20;;
23302;SDS011;11820;48.738;9.092;2022-09-17T12:01:00;2.53;;;0.80;;
23302;SDS011;11820;48.738;9.092;2022-09-17T12:03:41;4.37;;;1.47;;
23302;SDS011;11820;48.738;9.092;2022-09-17T12:06:25;4.30;;;1.43;;
23302;SDS011;11820;48.738;9.092;2022-09-17T12:09:14;2.80;;;1.00;;
23302;SDS011;11820;48.738;9.092;2022-09-17T12:11:45;2.53;;;0.90;;
23302;SDS011;11820;48.738;9.092;2022-09-17T12:14:18;3.43;;;1.17;;
23302;SDS011;11820;48.738;9.092;2022-09-17T12:17:10;2.90;;;1.07;;
23302;SDS011;11820;48.738;9.092;2022-09-17T12:19:42;4.27;;;1.00;;
23302;SDS011;11820;48.738;9.092;2022-09-17T12:22:14;3.53;;;0.90;;
23302;SDS011;11820;48.738;9.092;2022-09-17T12:24:45;3.00;;;0.80;;
23302;SDS011;11820;48.738;9.092;2022-09-17T12:30:00;2.60;;;1.07;;
23302;SDS011;11820;48.738;9.092;2022-09-17T12:44:25;3.27;;;1.30;;
23302;SDS011;11820;48.738;9.092;2022-09-17T12:47:32;2.63;;;1.20;;
23302;SDS011;11820;48.738;9.092;2022-09-17T12:50:34;2.97;;;1.10;;
23302;SDS011;11820;48.738;9.092;2022-09-17T13:01:34;2.23;;;0.80;;
23302;SDS011;11820;48.738;9.092;2022-09-17T13:04:06;0.93;;;0.60;;
23302;SDS011;11820;48.738;9.092;2022-09-17T13:06:59;2.73;;;1.10;;
23302;SDS011;11820;48.738;9.092;2022-09-17T13:12:16;3.07;;;1.10;;
23302;SDS011;11820;48.738;9.092;2022-09-17T13:15:08;2.30;;;0.70;;
23302;SDS011;11820;48.738;9.092;2022-09-17T13:17:55;0.63;;;0.53;;
23302;SDS011;11820;48.738;9.092;2022-09-17T13:20:26;1.80;;;0.80;;
23302;SDS011;11820;48.738;9.092;2022-09-17T13:22:58;4.03;;;1.30;;
23302;SDS011;11820;48.738;9.092;2022-09-17T13:25:24;1.87;;;1.10;;
23302;SDS011;11820;48.738;9.092;2022-09-17T13:28:02;4.10;;;1.07;;
23302;SDS011;11820;48.738;9.092;2022-09-17T13:39:00;2.23;;;0.90;;
23302;SDS011;11820;48.738;9.092;2022-09-17T13:41:26;1.93;;;0.70;;
23302;SDS011;11820;48.738;9.092;2022-09-17T13:43:54;1.17;;;0.70;;
23302;SDS011;11820;48.738;9.092;2022-09-17T13:46:20;3.83;;;1.03;;
23302;SDS011;11820;48.738;9.092;2022-09-17T13:48:48;2.73;;;0.70;;
23302;SDS011;11820;48.738;9.092;2022-09-17T13:52:03;2.13;;;0.70;;
23302;SDS011;11820;48.738;9.092;2022-09-17T13:54:04;2.37;;;0.80;;
23302;SDS011;11820;48.738;9.092;2022-09-17T13:56:44;2.07;;;0.90;;
23302;SDS011;11820;48.738;9.092;2022-09-17T13:59:14;1.63;;;0.67;;
23302;SDS011;11820;48.738;9.092;2022-09-17T14:15:02;2.47;;;1.00;;
23302;SDS011;11820;48.738;9.092;2022-09-17T14:17:47;3.33;;;0.90;;
23302;SDS011;11820;48.738;9.092;2022-09-17T14:20:15;1.10;;;0.70;;
23302;SDS011;11820;48.738;9.092;2022-09-17T14:22:43;2.40;;;0.90;;
23302;SDS011;11820;48.738;9.092;2022-09-17T14:25:15;2.87;;;0.80;;
23302;SDS011;11820;48.738;9.092;2022-09-17T14:30:30;1.83;;;0.87;;
23302;SDS011;11820;48.738;9.092;2022-09-17T14:33:10;2.77;;;0.80;;
23302;SDS011;11820;48.738;9.092;2022-09-17T14:40:45;1.63;;;0.73;;
23302;SDS011;11820;48.738;9.092;2022-09-17T14:43:20;4.00;;;1.10;;
23302;SDS011;11820;48.738;9.092;2022-09-17T14:45:58;2.70;;;1.10;;
23302;SDS011;11820;48.738;9.092;2022-09-17T14:53:41;2.37;;;1.20;;
23302;SDS011;11820;48.738;9.092;2022-09-17T14:56:07;4.13;;;1.43;;
23302;SDS011;11820;48.738;9.092;2022-09-17T14:58:36;4.53;;;1.47;;
23302;SDS011;11820;48.738;9.092;2022-09-17T15:01:12;1.47;;;0.90;;
23302;SDS011;11820;48.738;9.092;2022-09-17T15:03:46;3.17;;;1.00;;
23302;SDS011;11820;48.738;9.092;2022-09-17T15:06:21;2.90;;;0.90;;
23302;SDS011;11820;48.738;9.092;2022-09-17T15:08:47;4.33;;;1.33;;
23302;SDS011;11820;48.738;9.092;2022-09-17T15:11:13;2.30;;;0.80;;
23302;SDS011;11820;48.738;9.092;2022-09-17T15:13:48;2.83;;;1.27;;
23302;SDS011;11820;48.738;9.092;2022-09-17T15:18:48;3.40;;;1.00;;
23302;SDS011;11820;48.738;9.092;2022-09-17T15:21:27;6.37;;;1.50;;
23302;SDS011;11820;48.738;9.092;2022-09-17T15:26:58;4.07;;;1.43;;
23302;SDS011;11820;48.738;9.092;2022-09-17T15:29:35;3.50;;;1.20;;
23302;SDS011;11820;48.738;9.092;2022-09-17T15:32:05;4.50;;;1.20;;
23302;SDS011;11820;48.738;9.092;2022-09-17T15:34:30;3.70;;;1.10;;
23302;SDS011;11820;48.738;9.092;2022-09-17T15:39:42;2.77;;;1.43;;
23302;SDS011;11820;48.738;9.092;2022-09-17T15:42:22;3.67;;;1.20;;
23302;SDS011;11820;48.738;9.092;2022-09-17T15:47:49;3.43;;;1.27;;
23302;SDS011;11820;48.738;9.092;2022-09-17T15:50:20;2.80;;;1.20;;
23302;SDS011;11820;48.738;9.092;2022-09-17T15:53:20;5.37;;;1.47;;
23302;SDS011;11820;48.738;9.092;2022-09-17T15:58:29;4.63;;;1.20;;
23302;SDS011;11820;48.738;9.092;2022-09-17T16:11:15;2.70;;;1.33;;
23302;SDS011;11820;48.738;9.092;2022-09-17T16:13:42;2.60;;;0.80;;
23302;SDS011;11820;48.738;9.092;2022-09-17T16:16:13;3.93;;;1.60;;
23302;SDS011;11820;48.738;9.092;2022-09-17T16:18:41;5.97;;;1.33;;
23302;SDS011;11820;48.738;9.092;2022-09-17T16:21:09;3.23;;;1.17;;
23302;SDS011;11820;48.738;9.092;2022-09-17T16:23:34;2.13;;;1.13;;
23302;SDS011;11820;48.738;9.092;2022-09-17T16:26:00;3.93;;;1.57;;
23302;SDS011;11820;48.738;9.092;2022-09-17T16:28:25;3.63;;;1.23;;
23302;SDS011;11820;48.738;9.092;2022-09-17T16:30:50;1.67;;;1.00;;
23302;SDS011;11820;48.738;9.092;2022-09-17T16:33:16;2.63;;;1.23;;
23302;SDS011;11820;48.738;9.092;2022-09-17T16:35:42;8.30;;;1.03;;
23302;SDS011;11820;48.738;9.092;2022-09-17T16:38:08;3.07;;;1.00;;
23302;SDS011;11820;48.738;9.092;2022-09-17T16:40:38;3.33;;;1.47;;
23302;SDS011;11820;48.738;9.092;2022-09-17T16:43:09;2.10;;;0.90;;
23302;SDS011;11820;48.738;9.092;2022-09-17T16:45:34;4.77;;;0.83;;
23302;SDS011;11820;48.738;9.092;2022-09-17T16:48:00;2.33;;;1.07;;
23302;SDS011;11820;48.738;9.092;2022-09-17T16:50:26;6.57;;;1.43;;
23302;SDS011;11820;48.738;9.092;2022-09-17T16:52:52;6.83;;;1.33;;
23302;SDS011;11820;48.738;9.092;2022-09-17T16:55:18;3.23;;;1.23;;
23302;SDS011;11820;48.738;9.092;2022-09-17T16:57:44;3.80;;;0.90;;
23302;SDS011;11820;48.738;9.092;2022-09-17T17:00:10;4.37;;;1.30;;
23302;SDS011;11820;48.738;9.092;2022-09-17T17:02:38;2.57;;;1.00;;
23302;SDS011;11820;48.738;9.092;2022-09-17T17:05:03;3.73;;;1.00;;
23302;SDS011;11820;48.738;9.092;2022-09-17T17:07:29;6.37;;;1.73;;
23302;SDS011;11820;48.738;9.092;2022-09-17T17:09:56;1.70;;;0.93;;
23302;SDS011;11820;48.738;9.092;2022-09-17T17:12:22;3.57;;;1.17;;
23302;SDS011;11820;48.738;9.092;2022-09-17T17:14:48;3.57;;;1.50;;
23302;SDS011;11820;48.738;9.092;2022-09-17T17:17:16;5.23;;;1.50;;
23302;SDS011;11820;48.738;9.092;2022-09-17T17:19:42;4.00;;;1.50;;
23302;SDS011;11820;48.738;9.092;2022-09-17T17:22:08;3.70;;;1.30;;
23302;SDS011;11820;48.738;9.092;2022-09-17T17:24:33;3.17;;;1.27;;
23302;SDS011;11820;48.738;9.092;2022-09-17T17:26:58;3.77;;;1.73;;
23302;SDS011;11820;48.738;9.092;2022-09-17T17:29:24;4.90;;;1.70;;
23302;SDS011;11820;48.738;9.092;2022-09-17T17:31:49;3.47;;;1.20;;
23302;SDS011;11820;48.738;9.092;2022-09-17T17:34:15;4.87;;;1.70;;
23302;SDS011;11820;48.738;9.092;2022-09-17T17:36:40;1.90;;;1.00;;
23302;SDS011;11820;48.738;9.092;2022-09-17T17:39:06;3.60;;;1.43;;
23302;SDS011;11820;48.738;9.092;2022-09-17T17:41:33;3.30;;;1.40;;
23302;SDS011;11820;48.738;9.092;2022-09-17T17:43:59;5.60;;;1.90;;
23302;SDS011;11820;48.738;9.092;2022-09-17T17:46:24;2.53;;;1.30;;
23302;SDS011;11820;48.738;9.092;2022-09-17T17:48:50;5.87;;;1.10;;
23302;SDS011;11820;48.738;9.092;2022-09-17T17:51:15;3.60;;;1.20;;
23302;SDS011;11820;48.738;9.092;2022-09-17T17:53:44;2.07;;;1.13;;
23302;SDS011;11820;48.738;9.092;2022-09-17T17:56:10;2.70;;;1.17;;